Terminal Aerodrome Forecast
Issued by NWS Bismarck, ND

Home | Current Version | Previous Version | Text Only | Print | Product List | Glossary Off
Versions: 1 2 3 4 5 6 7 8 9 10 11 12 13 14 15 16 17 18 19 20 21

000
FTUS43 KBIS 210524
TAFBIS
TAF
KBIS 210524Z 2106/2206 14006KT P6SM SCT050 BKN250
     FM210900 16004KT P6SM SCT015 BKN120
     FM211800 29005KT P6SM VCTS FEW070CB SCT200
     FM220000 33006KT P6SM FEW070 FEW200=

USA.gov is the U.S. government's official web portal to all federal, state and local government web resources and services.